Pemberton, Ohio
Current Conditions -  °F | °C
As of 3:10 PM on Thursday 23 Oct 2014 (Local Time) from KEDJ Reporting Station
Clear Clear  
Wind Chill: 55°   Ceiling: Unl
Heat Index: 55°   Visibility: 10mi
Dew Point: 39°   Wind: 5mph
Humidity: 54%   Direction: 20°NNE
Pressure: 30.16"   Gusts: NA
Location:  40.29°N, 84.03°W
Report Text: KEDJ 231910Z AUTO 02004KT 10SM CLR 13/04 A3016 RMK AO1
Loading
Personal Weather Stations






























Interactive Weather Map
Tropical Storm Tracking
New forecast layout! Learn more

10-Day Weather Forecast

Advertisements
Track Severe Weather on mobile